sensor_id;sensor_type;location;lat;lon;timestamp;P1;durP1;ratioP1;P2;durP2;ratioP2
73296;SDS011;61524;50.938;11.396;2023-07-29T00:00:38;4.50;;;1.40;;
73296;SDS011;61524;50.938;11.396;2023-07-29T00:03:03;4.53;;;1.30;;
73296;SDS011;61524;50.938;11.396;2023-07-29T00:05:28;2.83;;;1.67;;
73296;SDS011;61524;50.938;11.396;2023-07-29T00:07:54;3.00;;;1.30;;
73296;SDS011;61524;50.938;11.396;2023-07-29T00:10:19;2.40;;;1.23;;
73296;SDS011;61524;50.938;11.396;2023-07-29T00:12:44;3.08;;;1.50;;
73296;SDS011;61524;50.938;11.396;2023-07-29T00:15:11;2.80;;;1.50;;
73296;SDS011;61524;50.938;11.396;2023-07-29T00:17:37;2.63;;;1.40;;
73296;SDS011;61524;50.938;11.396;2023-07-29T00:20:02;3.60;;;1.40;;
73296;SDS011;61524;50.938;11.396;2023-07-29T00:22:28;2.42;;;1.10;;
73296;SDS011;61524;50.938;11.396;2023-07-29T00:24:53;2.70;;;1.50;;
73296;SDS011;61524;50.938;11.396;2023-07-29T00:27:22;2.75;;;1.42;;
73296;SDS011;61524;50.938;11.396;2023-07-29T00:29:48;2.88;;;1.33;;
73296;SDS011;61524;50.938;11.396;2023-07-29T00:32:13;3.45;;;1.23;;
73296;SDS011;61524;50.938;11.396;2023-07-29T00:34:38;2.40;;;1.27;;
73296;SDS011;61524;50.938;11.396;2023-07-29T00:37:03;2.77;;;1.20;;
73296;SDS011;61524;50.938;11.396;2023-07-29T00:39:30;3.13;;;1.40;;
73296;SDS011;61524;50.938;11.396;2023-07-29T00:41:56;3.63;;;1.57;;
73296;SDS011;61524;50.938;11.396;2023-07-29T00:44:21;3.63;;;1.50;;
73296;SDS011;61524;50.938;11.396;2023-07-29T00:46:46;2.33;;;1.23;;
73296;SDS011;61524;50.938;11.396;2023-07-29T00:49:13;2.67;;;1.42;;
73296;SDS011;61524;50.938;11.396;2023-07-29T00:51:38;2.78;;;1.50;;
73296;SDS011;61524;50.938;11.396;2023-07-29T00:54:03;3.00;;;1.60;;
73296;SDS011;61524;50.938;11.396;2023-07-29T00:56:28;2.60;;;1.40;;
73296;SDS011;61524;50.938;11.396;2023-07-29T00:58:54;2.33;;;1.20;;
73296;SDS011;61524;50.938;11.396;2023-07-29T01:01:24;5.82;;;1.58;;
73296;SDS011;61524;50.938;11.396;2023-07-29T01:03:49;2.70;;;1.48;;
73296;SDS011;61524;50.938;11.396;2023-07-29T01:08:46;3.10;;;1.60;;
73296;SDS011;61524;50.938;11.396;2023-07-29T01:11:23;2.90;;;1.40;;
73296;SDS011;61524;50.938;11.396;2023-07-29T01:13:53;3.60;;;1.50;;
73296;SDS011;61524;50.938;11.396;2023-07-29T01:16:30;4.00;;;1.40;;
73296;SDS011;61524;50.938;11.396;2023-07-29T01:18:57;2.90;;;1.70;;
73296;SDS011;61524;50.938;11.396;2023-07-29T01:21:26;2.92;;;1.60;;
73296;SDS011;61524;50.938;11.396;2023-07-29T01:23:52;3.80;;;1.55;;
73296;SDS011;61524;50.938;11.396;2023-07-29T01:26:18;5.88;;;2.05;;
73296;SDS011;61524;50.938;11.396;2023-07-29T01:28:43;2.80;;;1.43;;
73296;SDS011;61524;50.938;11.396;2023-07-29T01:34:09;4.25;;;1.63;;
73296;SDS011;61524;50.938;11.396;2023-07-29T01:36:38;3.53;;;1.70;;
73296;SDS011;61524;50.938;11.396;2023-07-29T01:39:06;4.22;;;1.70;;
73296;SDS011;61524;50.938;11.396;2023-07-29T01:43:58;4.28;;;1.90;;
73296;SDS011;61524;50.938;11.396;2023-07-29T01:46:25;4.20;;;1.65;;
73296;SDS011;61524;50.938;11.396;2023-07-29T01:48:50;2.95;;;1.80;;
73296;SDS011;61524;50.938;11.396;2023-07-29T01:51:15;3.23;;;1.70;;
73296;SDS011;61524;50.938;11.396;2023-07-29T01:53:41;3.72;;;1.85;;
73296;SDS011;61524;50.938;11.396;2023-07-29T01:56:06;3.87;;;1.90;;
73296;SDS011;61524;50.938;11.396;2023-07-29T01:58:31;3.95;;;1.98;;
73296;SDS011;61524;50.938;11.396;2023-07-29T02:00:56;4.10;;;2.13;;
73296;SDS011;61524;50.938;11.396;2023-07-29T02:03:22;4.43;;;1.80;;
73296;SDS011;61524;50.938;11.396;2023-07-29T02:05:47;3.47;;;1.70;;
73296;SDS011;61524;50.938;11.396;2023-07-29T02:08:12;3.83;;;1.90;;
73296;SDS011;61524;50.938;11.396;2023-07-29T02:10:39;4.28;;;1.92;;
73296;SDS011;61524;50.938;11.396;2023-07-29T02:13:04;4.30;;;1.87;;
73296;SDS011;61524;50.938;11.396;2023-07-29T02:15:29;2.90;;;1.77;;
73296;SDS011;61524;50.938;11.396;2023-07-29T02:17:54;3.10;;;1.70;;
73296;SDS011;61524;50.938;11.396;2023-07-29T02:20:20;3.10;;;1.50;;
73296;SDS011;61524;50.938;11.396;2023-07-29T02:22:45;3.55;;;1.63;;
73296;SDS011;61524;50.938;11.396;2023-07-29T02:25:10;3.47;;;1.85;;
73296;SDS011;61524;50.938;11.396;2023-07-29T02:27:36;3.20;;;1.60;;
73296;SDS011;61524;50.938;11.396;2023-07-29T02:30:01;3.47;;;1.73;;
73296;SDS011;61524;50.938;11.396;2023-07-29T02:32:27;5.60;;;1.60;;
73296;SDS011;61524;50.938;11.396;2023-07-29T02:34:52;4.65;;;1.90;;
73296;SDS011;61524;50.938;11.396;2023-07-29T02:37:17;3.63;;;1.70;;
73296;SDS011;61524;50.938;11.396;2023-07-29T02:39:43;3.13;;;1.60;;
73296;SDS011;61524;50.938;11.396;2023-07-29T02:42:08;3.80;;;1.63;;
73296;SDS011;61524;50.938;11.396;2023-07-29T02:44:33;3.35;;;2.03;;
73296;SDS011;61524;50.938;11.396;2023-07-29T02:46:59;3.35;;;2.10;;
73296;SDS011;61524;50.938;11.396;2023-07-29T02:49:24;3.28;;;1.77;;
73296;SDS011;61524;50.938;11.396;2023-07-29T02:51:49;3.10;;;1.70;;
73296;SDS011;61524;50.938;11.396;2023-07-29T02:54:15;4.28;;;1.63;;
73296;SDS011;61524;50.938;11.396;2023-07-29T02:56:40;3.58;;;1.92;;
73296;SDS011;61524;50.938;11.396;2023-07-29T02:59:05;3.33;;;1.63;;
73296;SDS011;61524;50.938;11.396;2023-07-29T03:01:31;4.55;;;1.83;;
73296;SDS011;61524;50.938;11.396;2023-07-29T03:03:56;3.42;;;1.90;;
73296;SDS011;61524;50.938;11.396;2023-07-29T03:06:21;3.10;;;1.77;;
73296;SDS011;61524;50.938;11.396;2023-07-29T03:08:47;4.40;;;1.75;;
73296;SDS011;61524;50.938;11.396;2023-07-29T03:11:13;3.27;;;1.90;;
73296;SDS011;61524;50.938;11.396;2023-07-29T03:13:39;3.17;;;1.77;;
73296;SDS011;61524;50.938;11.396;2023-07-29T03:16:05;3.00;;;2.00;;
73296;SDS011;61524;50.938;11.396;2023-07-29T03:18:30;5.55;;;2.15;;
73296;SDS011;61524;50.938;11.396;2023-07-29T03:20:55;2.90;;;1.77;;
73296;SDS011;61524;50.938;11.396;2023-07-29T03:23:21;4.32;;;1.98;;
73296;SDS011;61524;50.938;11.396;2023-07-29T03:25:48;4.77;;;2.20;;
73296;SDS011;61524;50.938;11.396;2023-07-29T03:28:13;3.88;;;2.00;;
73296;SDS011;61524;50.938;11.396;2023-07-29T03:30:38;4.30;;;1.80;;
73296;SDS011;61524;50.938;11.396;2023-07-29T03:33:03;3.17;;;1.90;;
73296;SDS011;61524;50.938;11.396;2023-07-29T03:35:29;3.63;;;1.73;;
73296;SDS011;61524;50.938;11.396;2023-07-29T03:37:55;3.15;;;1.52;;
73296;SDS011;61524;50.938;11.396;2023-07-29T03:40:20;5.20;;;1.85;;
73296;SDS011;61524;50.938;11.396;2023-07-29T03:42:45;3.72;;;1.98;;
73296;SDS011;61524;50.938;11.396;2023-07-29T03:45:11;3.40;;;1.80;;
73296;SDS011;61524;50.938;11.396;2023-07-29T03:47:36;3.08;;;1.65;;
73296;SDS011;61524;50.938;11.396;2023-07-29T03:50:02;5.18;;;1.85;;
73296;SDS011;61524;50.938;11.396;2023-07-29T03:52:27;3.17;;;1.85;;
73296;SDS011;61524;50.938;11.396;2023-07-29T03:54:53;3.63;;;1.90;;
73296;SDS011;61524;50.938;11.396;2023-07-29T03:57:18;5.30;;;2.07;;
73296;SDS011;61524;50.938;11.396;2023-07-29T03:59:43;4.30;;;2.30;;
73296;SDS011;61524;50.938;11.396;2023-07-29T04:02:08;5.10;;;2.70;;
73296;SDS011;61524;50.938;11.396;2023-07-29T04:04:34;3.92;;;2.10;;
73296;SDS011;61524;50.938;11.396;2023-07-29T04:06:59;4.33;;;2.10;;
73296;SDS011;61524;50.938;11.396;2023-07-29T04:09:25;5.72;;;2.58;;
73296;SDS011;61524;50.938;11.396;2023-07-29T04:11:50;4.45;;;2.63;;
73296;SDS011;61524;50.938;11.396;2023-07-29T04:14:16;4.20;;;2.40;;
73296;SDS011;61524;50.938;11.396;2023-07-29T04:16:41;6.30;;;2.55;;
73296;SDS011;61524;50.938;11.396;2023-07-29T04:19:06;4.43;;;3.00;;
73296;SDS011;61524;50.938;11.396;2023-07-29T04:21:32;4.37;;;2.43;;
73296;SDS011;61524;50.938;11.396;2023-07-29T04:23:57;3.75;;;1.90;;
73296;SDS011;61524;50.938;11.396;2023-07-29T04:26:22;3.73;;;1.87;;
73296;SDS011;61524;50.938;11.396;2023-07-29T04:28:47;3.58;;;2.00;;
73296;SDS011;61524;50.938;11.396;2023-07-29T04:31:13;3.93;;;1.70;;
73296;SDS011;61524;50.938;11.396;2023-07-29T04:33:38;3.60;;;2.07;;
73296;SDS011;61524;50.938;11.396;2023-07-29T04:36:04;4.32;;;1.55;;
73296;SDS011;61524;50.938;11.396;2023-07-29T04:38:33;3.57;;;1.97;;
73296;SDS011;61524;50.938;11.396;2023-07-29T04:40:58;3.67;;;2.00;;
73296;SDS011;61524;50.938;11.396;2023-07-29T04:43:26;3.50;;;1.77;;
73296;SDS011;61524;50.938;11.396;2023-07-29T04:45:52;3.78;;;1.73;;
73296;SDS011;61524;50.938;11.396;2023-07-29T04:48:17;3.33;;;1.90;;
73296;SDS011;61524;50.938;11.396;2023-07-29T04:50:42;4.50;;;1.80;;
73296;SDS011;61524;50.938;11.396;2023-07-29T04:53:07;3.60;;;1.50;;
73296;SDS011;61524;50.938;11.396;2023-07-29T04:55:33;3.40;;;1.80;;
73296;SDS011;61524;50.938;11.396;2023-07-29T04:57:58;3.70;;;1.80;;
73296;SDS011;61524;50.938;11.396;2023-07-29T05:02:50;5.07;;;2.25;;
73296;SDS011;61524;50.938;11.396;2023-07-29T05:05:15;5.57;;;1.95;;
73296;SDS011;61524;50.938;11.396;2023-07-29T05:07:40;5.20;;;1.90;;
73296;SDS011;61524;50.938;11.396;2023-07-29T05:10:06;4.73;;;1.70;;
73296;SDS011;61524;50.938;11.396;2023-07-29T05:12:31;2.90;;;1.80;;
73296;SDS011;61524;50.938;11.396;2023-07-29T05:14:57;3.40;;;1.63;;
73296;SDS011;61524;50.938;11.396;2023-07-29T05:17:23;2.72;;;1.60;;
73296;SDS011;61524;50.938;11.396;2023-07-29T05:19:48;3.00;;;1.63;;
73296;SDS011;61524;50.938;11.396;2023-07-29T05:22:14;6.70;;;2.40;;
73296;SDS011;61524;50.938;11.396;2023-07-29T05:24:39;4.00;;;1.50;;
73296;SDS011;61524;50.938;11.396;2023-07-29T05:27:04;3.00;;;1.73;;
73296;SDS011;61524;50.938;11.396;2023-07-29T05:29:30;3.08;;;1.40;;
73296;SDS011;61524;50.938;11.396;2023-07-29T05:31:55;2.92;;;1.50;;
73296;SDS011;61524;50.938;11.396;2023-07-29T05:34:22;4.38;;;1.52;;
73296;SDS011;61524;50.938;11.396;2023-07-29T05:36:47;3.42;;;1.55;;
73296;SDS011;61524;50.938;11.396;2023-07-29T05:39:13;4.57;;;1.83;;
73296;SDS011;61524;50.938;11.396;2023-07-29T05:41:38;3.08;;;1.60;;
73296;SDS011;61524;50.938;11.396;2023-07-29T05:44:03;2.87;;;1.57;;
73296;SDS011;61524;50.938;11.396;2023-07-29T05:46:29;2.43;;;1.30;;
73296;SDS011;61524;50.938;11.396;2023-07-29T05:48:54;2.30;;;1.20;;
73296;SDS011;61524;50.938;11.396;2023-07-29T05:51:19;2.17;;;1.20;;
73296;SDS011;61524;50.938;11.396;2023-07-29T05:53:45;3.80;;;1.60;;
73296;SDS011;61524;50.938;11.396;2023-07-29T05:56:10;2.50;;;1.30;;
73296;SDS011;61524;50.938;11.396;2023-07-29T05:58:35;3.23;;;1.40;;
73296;SDS011;61524;50.938;11.396;2023-07-29T06:01:00;4.90;;;1.37;;
73296;SDS011;61524;50.938;11.396;2023-07-29T06:03:26;4.28;;;1.40;;
73296;SDS011;61524;50.938;11.396;2023-07-29T06:05:51;2.40;;;1.35;;
73296;SDS011;61524;50.938;11.396;2023-07-29T06:08:17;2.80;;;1.42;;
73296;SDS011;61524;50.938;11.396;2023-07-29T06:10:42;5.10;;;1.27;;
73296;SDS011;61524;50.938;11.396;2023-07-29T06:13:07;4.82;;;1.40;;
73296;SDS011;61524;50.938;11.396;2023-07-29T06:15:33;2.63;;;1.23;;
73296;SDS011;61524;50.938;11.396;2023-07-29T06:17:58;3.30;;;1.27;;
73296;SDS011;61524;50.938;11.396;2023-07-29T06:20:23;2.97;;;1.20;;
73296;SDS011;61524;50.938;11.396;2023-07-29T06:22:49;2.97;;;1.30;;
73296;SDS011;61524;50.938;11.396;2023-07-29T06:25:14;1.70;;;1.00;;
73296;SDS011;61524;50.938;11.396;2023-07-29T06:27:39;2.13;;;1.10;;
73296;SDS011;61524;50.938;11.396;2023-07-29T06:30:05;2.70;;;1.10;;
73296;SDS011;61524;50.938;11.396;2023-07-29T06:32:31;2.65;;;1.10;;
73296;SDS011;61524;50.938;11.396;2023-07-29T06:34:56;1.58;;;0.90;;
73296;SDS011;61524;50.938;11.396;2023-07-29T06:37:21;2.07;;;1.10;;
73296;SDS011;61524;50.938;11.396;2023-07-29T06:39:47;3.30;;;1.05;;
73296;SDS011;61524;50.938;11.396;2023-07-29T06:42:12;8.95;;;1.20;;
73296;SDS011;61524;50.938;11.396;2023-07-29T06:44:38;4.45;;;1.20;;
73296;SDS011;61524;50.938;11.396;2023-07-29T06:47:03;2.33;;;0.97;;
73296;SDS011;61524;50.938;11.396;2023-07-29T06:49:28;1.95;;;0.85;;
73296;SDS011;61524;50.938;11.396;2023-07-29T06:51:53;2.77;;;1.07;;
73296;SDS011;61524;50.938;11.396;2023-07-29T06:54:19;2.00;;;1.07;;
73296;SDS011;61524;50.938;11.396;2023-07-29T06:56:49;2.85;;;1.00;;
73296;SDS011;61524;50.938;11.396;2023-07-29T06:59:14;2.23;;;1.10;;
73296;SDS011;61524;50.938;11.396;2023-07-29T07:01:39;6.47;;;1.30;;
73296;SDS011;61524;50.938;11.396;2023-07-29T07:04:04;2.17;;;1.00;;
73296;SDS011;61524;50.938;11.396;2023-07-29T07:06:30;2.57;;;1.10;;
73296;SDS011;61524;50.938;11.396;2023-07-29T07:08:55;1.87;;;1.10;;
73296;SDS011;61524;50.938;11.396;2023-07-29T07:11:20;2.90;;;1.20;;
73296;SDS011;61524;50.938;11.396;2023-07-29T07:13:45;1.45;;;0.85;;
73296;SDS011;61524;50.938;11.396;2023-07-29T07:16:11;1.77;;;0.90;;
73296;SDS011;61524;50.938;11.396;2023-07-29T07:18:36;1.73;;;0.90;;
73296;SDS011;61524;50.938;11.396;2023-07-29T07:21:01;1.77;;;0.77;;
73296;SDS011;61524;50.938;11.396;2023-07-29T07:23:27;1.80;;;1.00;;
73296;SDS011;61524;50.938;11.396;2023-07-29T07:25:52;1.40;;;0.70;;
73296;SDS011;61524;50.938;11.396;2023-07-29T07:28:17;2.37;;;0.73;;
73296;SDS011;61524;50.938;11.396;2023-07-29T07:30:42;1.57;;;0.80;;
73296;SDS011;61524;50.938;11.396;2023-07-29T07:33:08;2.00;;;0.70;;
73296;SDS011;61524;50.938;11.396;2023-07-29T07:35:33;3.13;;;0.88;;
73296;SDS011;61524;50.938;11.396;2023-07-29T07:37:58;3.27;;;0.87;;
73296;SDS011;61524;50.938;11.396;2023-07-29T07:40:26;2.30;;;0.65;;
73296;SDS011;61524;50.938;11.396;2023-07-29T07:42:52;1.33;;;0.70;;
73296;SDS011;61524;50.938;11.396;2023-07-29T07:45:17;1.30;;;0.63;;
73296;SDS011;61524;50.938;11.396;2023-07-29T07:47:43;1.40;;;0.77;;
73296;SDS011;61524;50.938;11.396;2023-07-29T07:50:08;1.35;;;0.60;;
73296;SDS011;61524;50.938;11.396;2023-07-29T07:52:33;1.67;;;0.80;;
73296;SDS011;61524;50.938;11.396;2023-07-29T07:54:59;1.25;;;0.70;;
73296;SDS011;61524;50.938;11.396;2023-07-29T07:57:24;2.03;;;0.70;;
73296;SDS011;61524;50.938;11.396;2023-07-29T07:59:49;2.63;;;0.90;;
73296;SDS011;61524;50.938;11.396;2023-07-29T08:02:15;1.38;;;0.55;;
73296;SDS011;61524;50.938;11.396;2023-07-29T08:04:41;1.90;;;0.82;;
73296;SDS011;61524;50.938;11.396;2023-07-29T08:07:06;4.57;;;0.90;;
73296;SDS011;61524;50.938;11.396;2023-07-29T08:09:31;1.53;;;0.80;;
73296;SDS011;61524;50.938;11.396;2023-07-29T08:11:56;1.40;;;0.70;;
73296;SDS011;61524;50.938;11.396;2023-07-29T08:14:22;1.23;;;0.60;;
73296;SDS011;61524;50.938;11.396;2023-07-29T08:16:47;1.33;;;0.88;;
73296;SDS011;61524;50.938;11.396;2023-07-29T08:19:12;1.20;;;0.70;;
73296;SDS011;61524;50.938;11.396;2023-07-29T08:21:38;1.63;;;0.73;;
73296;SDS011;61524;50.938;11.396;2023-07-29T08:24:03;1.43;;;0.70;;
73296;SDS011;61524;50.938;11.396;2023-07-29T08:26:28;1.80;;;0.90;;
73296;SDS011;61524;50.938;11.396;2023-07-29T08:28:54;2.67;;;0.70;;
73296;SDS011;61524;50.938;11.396;2023-07-29T08:31:19;3.80;;;0.90;;
73296;SDS011;61524;50.938;11.396;2023-07-29T08:33:44;1.97;;;0.90;;
73296;SDS011;61524;50.938;11.396;2023-07-29T08:36:10;1.90;;;0.70;;
73296;SDS011;61524;50.938;11.396;2023-07-29T08:38:35;2.00;;;1.00;;
73296;SDS011;61524;50.938;11.396;2023-07-29T08:46:16;1.73;;;1.00;;
73296;SDS011;61524;50.938;11.396;2023-07-29T08:48:42;2.08;;;1.10;;
73296;SDS011;61524;50.938;11.396;2023-07-29T08:51:08;3.88;;;2.55;;
73296;SDS011;61524;50.938;11.396;2023-07-29T08:53:33;3.38;;;1.20;;
73296;SDS011;61524;50.938;11.396;2023-07-29T08:55:59;2.30;;;1.00;;
73296;SDS011;61524;50.938;11.396;2023-07-29T08:58:24;1.50;;;0.88;;
73296;SDS011;61524;50.938;11.396;2023-07-29T09:00:50;2.15;;;0.93;;
73296;SDS011;61524;50.938;11.396;2023-07-29T09:03:16;1.67;;;1.00;;
73296;SDS011;61524;50.938;11.396;2023-07-29T09:05:41;2.63;;;1.13;;
73296;SDS011;61524;50.938;11.396;2023-07-29T09:08:06;2.17;;;1.30;;
73296;SDS011;61524;50.938;11.396;2023-07-29T09:10:35;2.58;;;1.00;;
73296;SDS011;61524;50.938;11.396;2023-07-29T09:13:00;2.75;;;1.20;;
73296;SDS011;61524;50.938;11.396;2023-07-29T09:15:32;1.98;;;1.00;;
73296;SDS011;61524;50.938;11.396;2023-07-29T09:17:58;2.70;;;1.08;;
73296;SDS011;61524;50.938;11.396;2023-07-29T09:20:24;2.38;;;1.17;;
73296;SDS011;61524;50.938;11.396;2023-07-29T09:22:50;2.38;;;1.10;;
73296;SDS011;61524;50.938;11.396;2023-07-29T09:25:15;4.85;;;1.20;;
73296;SDS011;61524;50.938;11.396;2023-07-29T09:27:42;2.58;;;1.30;;
73296;SDS011;61524;50.938;11.396;2023-07-29T09:30:11;2.53;;;1.37;;
73296;SDS011;61524;50.938;11.396;2023-07-29T09:32:40;2.97;;;1.20;;
73296;SDS011;61524;50.938;11.396;2023-07-29T09:35:09;2.67;;;1.13;;
73296;SDS011;61524;50.938;11.396;2023-07-29T09:37:35;2.25;;;1.20;;
73296;SDS011;61524;50.938;11.396;2023-07-29T09:40:01;2.35;;;1.17;;
73296;SDS011;61524;50.938;11.396;2023-07-29T09:42:26;2.30;;;1.20;;
73296;SDS011;61524;50.938;11.396;2023-07-29T09:44:51;2.33;;;1.20;;
73296;SDS011;61524;50.938;11.396;2023-07-29T09:47:23;2.80;;;1.37;;
73296;SDS011;61524;50.938;11.396;2023-07-29T09:49:52;2.42;;;1.30;;
73296;SDS011;61524;50.938;11.396;2023-07-29T09:52:18;2.83;;;1.33;;
73296;SDS011;61524;50.938;11.396;2023-07-29T09:54:43;2.63;;;1.15;;
73296;SDS011;61524;50.938;11.396;2023-07-29T09:57:10;3.80;;;1.45;;
73296;SDS011;61524;50.938;11.396;2023-07-29T09:59:35;3.65;;;1.50;;
73296;SDS011;61524;50.938;11.396;2023-07-29T10:02:00;4.47;;;1.30;;
73296;SDS011;61524;50.938;11.396;2023-07-29T10:04:26;2.80;;;1.20;;
73296;SDS011;61524;50.938;11.396;2023-07-29T10:06:52;2.63;;;1.40;;
73296;SDS011;61524;50.938;11.396;2023-07-29T10:09:17;2.35;;;1.23;;
73296;SDS011;61524;50.938;11.396;2023-07-29T10:11:43;3.20;;;1.40;;
73296;SDS011;61524;50.938;11.396;2023-07-29T10:14:08;2.92;;;1.50;;
73296;SDS011;61524;50.938;11.396;2023-07-29T10:16:34;2.57;;;1.33;;
73296;SDS011;61524;50.938;11.396;2023-07-29T10:19:01;4.07;;;1.40;;
73296;SDS011;61524;50.938;11.396;2023-07-29T10:21:26;4.68;;;1.50;;
73296;SDS011;61524;50.938;11.396;2023-07-29T10:23:53;3.92;;;1.45;;
73296;SDS011;61524;50.938;11.396;2023-07-29T10:26:19;3.00;;;1.52;;
73296;SDS011;61524;50.938;11.396;2023-07-29T10:28:46;2.80;;;1.40;;
73296;SDS011;61524;50.938;11.396;2023-07-29T10:31:11;2.95;;;1.40;;
73296;SDS011;61524;50.938;11.396;2023-07-29T10:33:37;3.33;;;1.33;;
73296;SDS011;61524;50.938;11.396;2023-07-29T10:36:03;2.50;;;1.35;;
73296;SDS011;61524;50.938;11.396;2023-07-29T10:38:29;3.08;;;1.35;;
73296;SDS011;61524;50.938;11.396;2023-07-29T10:40:55;2.63;;;1.40;;
73296;SDS011;61524;50.938;11.396;2023-07-29T10:45:55;3.00;;;1.40;;
73296;SDS011;61524;50.938;11.396;2023-07-29T10:50:46;2.88;;;1.33;;
73296;SDS011;61524;50.938;11.396;2023-07-29T10:53:11;2.50;;;1.40;;
73296;SDS011;61524;50.938;11.396;2023-07-29T10:55:36;2.47;;;1.20;;
73296;SDS011;61524;50.938;11.396;2023-07-29T10:58:09;4.13;;;1.30;;
73296;SDS011;61524;50.938;11.396;2023-07-29T11:00:36;6.00;;;1.38;;
73296;SDS011;61524;50.938;11.396;2023-07-29T11:03:02;3.65;;;1.30;;
73296;SDS011;61524;50.938;11.396;2023-07-29T11:05:41;2.47;;;1.20;;
73296;SDS011;61524;50.938;11.396;2023-07-29T11:08:16;2.65;;;1.27;;
73296;SDS011;61524;50.938;11.396;2023-07-29T11:10:43;3.15;;;1.70;;
73296;SDS011;61524;50.938;11.396;2023-07-29T11:13:09;2.72;;;1.40;;
73296;SDS011;61524;50.938;11.396;2023-07-29T11:15:36;3.15;;;1.00;;
73296;SDS011;61524;50.938;11.396;2023-07-29T11:18:03;2.10;;;1.30;;
73296;SDS011;61524;50.938;11.396;2023-07-29T11:20:30;5.18;;;1.40;;
73296;SDS011;61524;50.938;11.396;2023-07-29T11:22:57;2.45;;;1.20;;
73296;SDS011;61524;50.938;11.396;2023-07-29T11:27:47;2.73;;;1.47;;
73296;SDS011;61524;50.938;11.396;2023-07-29T11:30:13;2.92;;;1.35;;
73296;SDS011;61524;50.938;11.396;2023-07-29T11:32:40;2.45;;;1.20;;
73296;SDS011;61524;50.938;11.396;2023-07-29T11:35:06;2.50;;;1.40;;
73296;SDS011;61524;50.938;11.396;2023-07-29T11:37:33;2.47;;;1.08;;
73296;SDS011;61524;50.938;11.396;2023-07-29T11:39:58;3.10;;;1.45;;
73296;SDS011;61524;50.938;11.396;2023-07-29T11:42:23;2.92;;;1.27;;
73296;SDS011;61524;50.938;11.396;2023-07-29T11:44:49;4.10;;;1.40;;
73296;SDS011;61524;50.938;11.396;2023-07-29T11:47:14;3.07;;;1.10;;
73296;SDS011;61524;50.938;11.396;2023-07-29T11:49:40;3.70;;;1.40;;
73296;SDS011;61524;50.938;11.396;2023-07-29T11:52:06;2.17;;;1.20;;
73296;SDS011;61524;50.938;11.396;2023-07-29T11:56:57;3.03;;;1.10;;
73296;SDS011;61524;50.938;11.396;2023-07-29T11:59:22;1.92;;;1.10;;
73296;SDS011;61524;50.938;11.396;2023-07-29T12:01:48;2.50;;;1.15;;
73296;SDS011;61524;50.938;11.396;2023-07-29T12:04:13;2.60;;;1.20;;
73296;SDS011;61524;50.938;11.396;2023-07-29T12:06:38;1.98;;;1.08;;
73296;SDS011;61524;50.938;11.396;2023-07-29T12:09:04;3.03;;;1.50;;
73296;SDS011;61524;50.938;11.396;2023-07-29T12:11:30;2.88;;;1.13;;
73296;SDS011;61524;50.938;11.396;2023-07-29T12:13:55;2.20;;;1.00;;
73296;SDS011;61524;50.938;11.396;2023-07-29T12:16:21;2.42;;;1.30;;
73296;SDS011;61524;50.938;11.396;2023-07-29T12:18:46;2.80;;;1.10;;
73296;SDS011;61524;50.938;11.396;2023-07-29T12:21:13;2.35;;;1.20;;
73296;SDS011;61524;50.938;11.396;2023-07-29T12:23:39;3.95;;;1.42;;
73296;SDS011;61524;50.938;11.396;2023-07-29T12:26:04;2.58;;;1.13;;
73296;SDS011;61524;50.938;11.396;2023-07-29T12:28:30;3.57;;;1.30;;
73296;SDS011;61524;50.938;11.396;2023-07-29T12:30:55;3.40;;;1.20;;
73296;SDS011;61524;50.938;11.396;2023-07-29T12:33:31;2.75;;;1.20;;
73296;SDS011;61524;50.938;11.396;2023-07-29T12:35:57;3.90;;;1.52;;
73296;SDS011;61524;50.938;11.396;2023-07-29T12:38:22;3.10;;;1.60;;
73296;SDS011;61524;50.938;11.396;2023-07-29T12:40:47;2.47;;;1.17;;
73296;SDS011;61524;50.938;11.396;2023-07-29T12:43:13;2.65;;;1.40;;
73296;SDS011;61524;50.938;11.396;2023-07-29T12:45:38;3.57;;;1.40;;
73296;SDS011;61524;50.938;11.396;2023-07-29T12:48:06;3.00;;;1.20;;
73296;SDS011;61524;50.938;11.396;2023-07-29T12:50:31;1.97;;;1.13;;
73296;SDS011;61524;50.938;11.396;2023-07-29T12:52:57;3.10;;;1.20;;
73296;SDS011;61524;50.938;11.396;2023-07-29T12:55:22;3.40;;;1.80;;
73296;SDS011;61524;50.938;11.396;2023-07-29T12:57:47;2.83;;;1.35;;
73296;SDS011;61524;50.938;11.396;2023-07-29T13:00:13;2.50;;;1.10;;
73296;SDS011;61524;50.938;11.396;2023-07-29T13:02:38;3.88;;;1.60;;
73296;SDS011;61524;50.938;11.396;2023-07-29T13:05:04;4.18;;;1.30;;
73296;SDS011;61524;50.938;11.396;2023-07-29T13:07:29;3.22;;;1.20;;
73296;SDS011;61524;50.938;11.396;2023-07-29T13:09:54;2.60;;;1.20;;
73296;SDS011;61524;50.938;11.396;2023-07-29T13:12:20;3.07;;;1.27;;
73296;SDS011;61524;50.938;11.396;2023-07-29T13:14:45;2.58;;;1.27;;
73296;SDS011;61524;50.938;11.396;2023-07-29T13:17:10;2.80;;;1.10;;
73296;SDS011;61524;50.938;11.396;2023-07-29T13:19:35;3.33;;;1.30;;
73296;SDS011;61524;50.938;11.396;2023-07-29T13:22:01;3.37;;;1.30;;
73296;SDS011;61524;50.938;11.396;2023-07-29T13:24:27;2.60;;;1.20;;
73296;SDS011;61524;50.938;11.396;2023-07-29T13:26:52;4.35;;;1.33;;
73296;SDS011;61524;50.938;11.396;2023-07-29T13:29:17;2.70;;;1.30;;
73296;SDS011;61524;50.938;11.396;2023-07-29T13:31:43;2.97;;;1.30;;
73296;SDS011;61524;50.938;11.396;2023-07-29T13:34:08;3.03;;;1.03;;
73296;SDS011;61524;50.938;11.396;2023-07-29T13:36:33;3.23;;;1.50;;
73296;SDS011;61524;50.938;11.396;2023-07-29T13:38:59;2.53;;;1.30;;
73296;SDS011;61524;50.938;11.396;2023-07-29T13:41:24;3.03;;;1.10;;
73296;SDS011;61524;50.938;11.396;2023-07-29T13:43:49;2.60;;;1.30;;
73296;SDS011;61524;50.938;11.396;2023-07-29T13:46:14;3.63;;;1.20;;
73296;SDS011;61524;50.938;11.396;2023-07-29T13:48:40;3.00;;;1.30;;
73296;SDS011;61524;50.938;11.396;2023-07-29T13:51:05;2.67;;;1.50;;
73296;SDS011;61524;50.938;11.396;2023-07-29T13:53:30;2.28;;;1.30;;
73296;SDS011;61524;50.938;11.396;2023-07-29T13:55:55;5.40;;;1.70;;
73296;SDS011;61524;50.938;11.396;2023-07-29T13:58:21;4.45;;;1.42;;
73296;SDS011;61524;50.938;11.396;2023-07-29T14:00:46;4.13;;;1.77;;
73296;SDS011;61524;50.938;11.396;2023-07-29T14:03:11;3.20;;;1.30;;
73296;SDS011;61524;50.938;11.396;2023-07-29T14:05:37;3.37;;;1.53;;
73296;SDS011;61524;50.938;11.396;2023-07-29T14:08:02;3.70;;;1.70;;
73296;SDS011;61524;50.938;11.396;2023-07-29T14:10:27;2.65;;;1.30;;
73296;SDS011;61524;50.938;11.396;2023-07-29T14:12:52;3.70;;;1.80;;
73296;SDS011;61524;50.938;11.396;2023-07-29T14:15:18;3.60;;;1.47;;
73296;SDS011;61524;50.938;11.396;2023-07-29T14:17:43;2.58;;;1.42;;
73296;SDS011;61524;50.938;11.396;2023-07-29T14:20:09;4.38;;;1.60;;
73296;SDS011;61524;50.938;11.396;2023-07-29T14:22:35;3.70;;;1.35;;
73296;SDS011;61524;50.938;11.396;2023-07-29T14:25:00;3.25;;;1.75;;
73296;SDS011;61524;50.938;11.396;2023-07-29T14:27:26;4.55;;;1.75;;
73296;SDS011;61524;50.938;11.396;2023-07-29T14:29:51;4.13;;;1.30;;
73296;SDS011;61524;50.938;11.396;2023-07-29T14:32:16;3.53;;;1.43;;
73296;SDS011;61524;50.938;11.396;2023-07-29T14:34:41;3.22;;;1.23;;
73296;SDS011;61524;50.938;11.396;2023-07-29T14:37:07;4.53;;;1.43;;
73296;SDS011;61524;50.938;11.396;2023-07-29T14:39:32;5.30;;;1.50;;
73296;SDS011;61524;50.938;11.396;2023-07-29T14:41:58;3.28;;;1.30;;
73296;SDS011;61524;50.938;11.396;2023-07-29T14:44:23;3.20;;;1.37;;
73296;SDS011;61524;50.938;11.396;2023-07-29T14:46:48;3.80;;;1.50;;
73296;SDS011;61524;50.938;11.396;2023-07-29T14:49:13;5.13;;;1.80;;